sensor_id;sensor_type;location;lat;lon;timestamp;P1;durP1;ratioP1;P2;durP2;ratioP2
43986;SDS011;29650;47.378;8.300;2024-03-02T00:01:19;14.00;;;8.93;;
43986;SDS011;29650;47.378;8.300;2024-03-02T00:03:46;12.68;;;8.82;;
43986;SDS011;29650;47.378;8.300;2024-03-02T00:06:13;13.65;;;8.27;;
43986;SDS011;29650;47.378;8.300;2024-03-02T00:08:40;13.68;;;8.35;;
43986;SDS011;29650;47.378;8.300;2024-03-02T00:11:06;12.05;;;8.75;;
43986;SDS011;29650;47.378;8.300;2024-03-02T00:13:36;15.57;;;8.68;;
43986;SDS011;29650;47.378;8.300;2024-03-02T00:16:04;11.20;;;7.15;;
43986;SDS011;29650;47.378;8.300;2024-03-02T00:18:34;12.20;;;7.43;;
43986;SDS011;29650;47.378;8.300;2024-03-02T00:21:02;14.75;;;8.77;;
43986;SDS011;29650;47.378;8.300;2024-03-02T00:23:34;14.35;;;8.15;;
43986;SDS011;29650;47.378;8.300;2024-03-02T00:26:01;14.35;;;8.80;;
43986;SDS011;29650;47.378;8.300;2024-03-02T00:28:29;16.65;;;8.85;;
43986;SDS011;29650;47.378;8.300;2024-03-02T00:30:59;46.88;;;11.15;;
43986;SDS011;29650;47.378;8.300;2024-03-02T00:33:30;22.92;;;11.45;;
43986;SDS011;29650;47.378;8.300;2024-03-02T00:36:00;23.55;;;11.05;;
43986;SDS011;29650;47.378;8.300;2024-03-02T00:38:29;18.52;;;11.07;;
43986;SDS011;29650;47.378;8.300;2024-03-02T00:40:58;29.60;;;12.30;;
43986;SDS011;29650;47.378;8.300;2024-03-02T00:43:42;25.00;;;12.30;;
43986;SDS011;29650;47.378;8.300;2024-03-02T00:46:11;22.92;;;11.80;;
43986;SDS011;29650;47.378;8.300;2024-03-02T00:48:39;35.37;;;12.97;;
43986;SDS011;29650;47.378;8.300;2024-03-02T00:51:14;49.80;;;14.82;;
43986;SDS011;29650;47.378;8.300;2024-03-02T00:53:41;43.25;;;13.88;;
43986;SDS011;29650;47.378;8.300;2024-03-02T00:56:09;46.13;;;14.27;;
43986;SDS011;29650;47.378;8.300;2024-03-02T00:58:37;36.22;;;13.07;;
43986;SDS011;29650;47.378;8.300;2024-03-02T01:01:03;24.15;;;12.68;;
43986;SDS011;29650;47.378;8.300;2024-03-02T01:03:32;27.65;;;12.52;;
43986;SDS011;29650;47.378;8.300;2024-03-02T01:05:59;120.70;;;16.80;;
43986;SDS011;29650;47.378;8.300;2024-03-02T01:08:27;22.00;;;11.88;;
43986;SDS011;29650;47.378;8.300;2024-03-02T01:10:54;26.40;;;12.98;;
43986;SDS011;29650;47.378;8.300;2024-03-02T01:13:21;130.48;;;16.55;;
43986;SDS011;29650;47.378;8.300;2024-03-02T01:15:49;88.95;;;14.18;;
43986;SDS011;29650;47.378;8.300;2024-03-02T01:18:16;80.80;;;16.58;;
43986;SDS011;29650;47.378;8.300;2024-03-02T01:20:43;39.90;;;13.02;;
43986;SDS011;29650;47.378;8.300;2024-03-02T01:23:10;30.60;;;13.23;;
43986;SDS011;29650;47.378;8.300;2024-03-02T01:25:39;49.40;;;12.50;;
43986;SDS011;29650;47.378;8.300;2024-03-02T01:28:06;56.93;;;12.30;;
43986;SDS011;29650;47.378;8.300;2024-03-02T01:30:33;25.73;;;11.50;;
43986;SDS011;29650;47.378;8.300;2024-03-02T01:33:00;28.85;;;11.93;;
43986;SDS011;29650;47.378;8.300;2024-03-02T01:35:27;36.08;;;12.05;;
43986;SDS011;29650;47.378;8.300;2024-03-02T01:37:54;45.72;;;13.38;;
43986;SDS011;29650;47.378;8.300;2024-03-02T01:40:23;65.80;;;13.75;;
43986;SDS011;29650;47.378;8.300;2024-03-02T01:42:53;36.92;;;11.82;;
43986;SDS011;29650;47.378;8.300;2024-03-02T01:45:20;43.05;;;12.68;;
43986;SDS011;29650;47.378;8.300;2024-03-02T01:47:48;33.17;;;12.60;;
43986;SDS011;29650;47.378;8.300;2024-03-02T01:50:15;37.85;;;12.35;;
43986;SDS011;29650;47.378;8.300;2024-03-02T01:52:42;103.88;;;16.70;;
43986;SDS011;29650;47.378;8.300;2024-03-02T01:55:09;32.53;;;11.30;;
43986;SDS011;29650;47.378;8.300;2024-03-02T01:57:36;35.75;;;10.80;;
43986;SDS011;29650;47.378;8.300;2024-03-02T02:00:06;152.95;;;15.45;;
43986;SDS011;29650;47.378;8.300;2024-03-02T02:02:35;127.18;;;15.60;;
43986;SDS011;29650;47.378;8.300;2024-03-02T02:05:02;138.93;;;15.60;;
43986;SDS011;29650;47.378;8.300;2024-03-02T02:07:29;66.90;;;12.73;;
43986;SDS011;29650;47.378;8.300;2024-03-02T02:09:56;96.60;;;12.10;;
43986;SDS011;29650;47.378;8.300;2024-03-02T02:12:23;69.05;;;11.57;;
43986;SDS011;29650;47.378;8.300;2024-03-02T02:14:50;225.15;;;20.23;;
43986;SDS011;29650;47.378;8.300;2024-03-02T02:17:18;72.10;;;10.88;;
43986;SDS011;29650;47.378;8.300;2024-03-02T02:19:45;53.03;;;9.87;;
43986;SDS011;29650;47.378;8.300;2024-03-02T02:22:14;116.00;;;12.57;;
43986;SDS011;29650;47.378;8.300;2024-03-02T02:24:41;104.00;;;12.93;;
43986;SDS011;29650;47.378;8.300;2024-03-02T02:27:08;49.20;;;11.18;;
43986;SDS011;29650;47.378;8.300;2024-03-02T02:29:35;126.82;;;15.07;;
43986;SDS011;29650;47.378;8.300;2024-03-02T02:32:03;119.38;;;15.25;;
43986;SDS011;29650;47.378;8.300;2024-03-02T02:34:30;66.05;;;13.98;;
43986;SDS011;29650;47.378;8.300;2024-03-02T02:36:57;93.45;;;17.10;;
43986;SDS011;29650;47.378;8.300;2024-03-02T02:39:25;113.85;;;17.35;;
43986;SDS011;29650;47.378;8.300;2024-03-02T02:41:52;38.50;;;12.57;;
43986;SDS011;29650;47.378;8.300;2024-03-02T02:44:19;34.45;;;11.50;;
43986;SDS011;29650;47.378;8.300;2024-03-02T02:46:46;50.38;;;13.35;;
43986;SDS011;29650;47.378;8.300;2024-03-02T02:49:13;30.98;;;12.18;;
43986;SDS011;29650;47.378;8.300;2024-03-02T02:51:40;20.35;;;11.02;;
43986;SDS011;29650;47.378;8.300;2024-03-02T02:54:06;20.02;;;10.27;;
43986;SDS011;29650;47.378;8.300;2024-03-02T02:56:35;25.75;;;11.98;;
43986;SDS011;29650;47.378;8.300;2024-03-02T02:59:02;72.00;;;15.32;;
43986;SDS011;29650;47.378;8.300;2024-03-02T03:01:28;35.38;;;11.35;;
43986;SDS011;29650;47.378;8.300;2024-03-02T03:03:55;24.63;;;11.45;;
43986;SDS011;29650;47.378;8.300;2024-03-02T03:06:22;63.80;;;11.95;;
43986;SDS011;29650;47.378;8.300;2024-03-02T03:08:49;19.63;;;10.27;;
43986;SDS011;29650;47.378;8.300;2024-03-02T03:11:16;33.40;;;10.13;;
43986;SDS011;29650;47.378;8.300;2024-03-02T03:13:44;39.90;;;12.10;;
43986;SDS011;29650;47.378;8.300;2024-03-02T03:16:11;50.27;;;12.17;;
43986;SDS011;29650;47.378;8.300;2024-03-02T03:18:38;23.48;;;10.40;;
43986;SDS011;29650;47.378;8.300;2024-03-02T03:21:05;39.38;;;11.75;;
43986;SDS011;29650;47.378;8.300;2024-03-02T03:23:32;26.50;;;11.18;;
43986;SDS011;29650;47.378;8.300;2024-03-02T03:25:59;38.88;;;11.00;;
43986;SDS011;29650;47.378;8.300;2024-03-02T03:28:26;15.35;;;9.40;;
43986;SDS011;29650;47.378;8.300;2024-03-02T03:30:54;33.85;;;10.93;;
43986;SDS011;29650;47.378;8.300;2024-03-02T03:33:21;42.80;;;11.73;;
43986;SDS011;29650;47.378;8.300;2024-03-02T03:35:48;26.10;;;10.20;;
43986;SDS011;29650;47.378;8.300;2024-03-02T03:38:15;15.43;;;9.82;;
43986;SDS011;29650;47.378;8.300;2024-03-02T03:40:42;21.63;;;9.80;;
43986;SDS011;29650;47.378;8.300;2024-03-02T03:43:10;26.77;;;12.07;;
43986;SDS011;29650;47.378;8.300;2024-03-02T03:45:36;15.73;;;10.57;;
43986;SDS011;29650;47.378;8.300;2024-03-02T03:48:05;28.75;;;13.40;;
43986;SDS011;29650;47.378;8.300;2024-03-02T03:50:32;22.83;;;11.35;;
43986;SDS011;29650;47.378;8.300;2024-03-02T03:52:59;26.50;;;11.95;;
43986;SDS011;29650;47.378;8.300;2024-03-02T03:55:26;61.05;;;14.52;;
43986;SDS011;29650;47.378;8.300;2024-03-02T03:57:53;45.08;;;12.45;;
43986;SDS011;29650;47.378;8.300;2024-03-02T04:00:20;33.63;;;12.75;;
43986;SDS011;29650;47.378;8.300;2024-03-02T04:02:47;25.00;;;12.32;;
43986;SDS011;29650;47.378;8.300;2024-03-02T04:05:15;28.15;;;12.27;;
43986;SDS011;29650;47.378;8.300;2024-03-02T04:07:42;53.35;;;13.70;;
43986;SDS011;29650;47.378;8.300;2024-03-02T04:10:09;57.78;;;13.85;;
43986;SDS011;29650;47.378;8.300;2024-03-02T04:12:38;55.55;;;13.02;;
43986;SDS011;29650;47.378;8.300;2024-03-02T04:15:05;98.15;;;15.15;;
43986;SDS011;29650;47.378;8.300;2024-03-02T04:17:32;63.45;;;15.20;;
43986;SDS011;29650;47.378;8.300;2024-03-02T04:20:00;20.42;;;12.43;;
43986;SDS011;29650;47.378;8.300;2024-03-02T04:22:32;26.30;;;11.77;;
43986;SDS011;29650;47.378;8.300;2024-03-02T04:24:59;41.60;;;11.95;;
43986;SDS011;29650;47.378;8.300;2024-03-02T04:27:27;88.72;;;15.27;;
43986;SDS011;29650;47.378;8.300;2024-03-02T04:29:53;35.97;;;11.27;;
43986;SDS011;29650;47.378;8.300;2024-03-02T04:32:20;37.67;;;11.45;;
43986;SDS011;29650;47.378;8.300;2024-03-02T04:34:47;39.38;;;10.73;;
43986;SDS011;29650;47.378;8.300;2024-03-02T04:37:14;33.63;;;10.80;;
43986;SDS011;29650;47.378;8.300;2024-03-02T04:39:42;25.35;;;11.43;;
43986;SDS011;29650;47.378;8.300;2024-03-02T04:42:09;98.32;;;13.77;;
43986;SDS011;29650;47.378;8.300;2024-03-02T04:44:36;66.75;;;11.50;;
43986;SDS011;29650;47.378;8.300;2024-03-02T04:47:03;59.67;;;12.57;;
43986;SDS011;29650;47.378;8.300;2024-03-02T04:49:31;92.47;;;13.57;;
43986;SDS011;29650;47.378;8.300;2024-03-02T04:51:57;40.63;;;11.73;;
43986;SDS011;29650;47.378;8.300;2024-03-02T04:54:24;86.45;;;14.00;;
43986;SDS011;29650;47.378;8.300;2024-03-02T04:56:53;78.63;;;14.00;;
43986;SDS011;29650;47.378;8.300;2024-03-02T04:59:20;66.95;;;13.25;;
43986;SDS011;29650;47.378;8.300;2024-03-02T05:01:46;69.63;;;13.07;;
43986;SDS011;29650;47.378;8.300;2024-03-02T05:04:13;60.28;;;12.27;;
43986;SDS011;29650;47.378;8.300;2024-03-02T05:06:40;42.80;;;11.40;;
43986;SDS011;29650;47.378;8.300;2024-03-02T05:09:07;51.47;;;12.30;;
43986;SDS011;29650;47.378;8.300;2024-03-02T05:11:35;78.38;;;13.40;;
43986;SDS011;29650;47.378;8.300;2024-03-02T05:14:21;22.15;;;11.85;;
43986;SDS011;29650;47.378;8.300;2024-03-02T05:16:47;32.03;;;10.40;;
43986;SDS011;29650;47.378;8.300;2024-03-02T05:19:14;44.08;;;12.77;;
43986;SDS011;29650;47.378;8.300;2024-03-02T05:21:41;37.97;;;10.63;;
43986;SDS011;29650;47.378;8.300;2024-03-02T05:24:08;120.10;;;15.68;;
43986;SDS011;29650;47.378;8.300;2024-03-02T05:26:35;85.68;;;12.98;;
43986;SDS011;29650;47.378;8.300;2024-03-02T05:29:02;140.52;;;14.52;;
43986;SDS011;29650;47.378;8.300;2024-03-02T05:31:30;50.78;;;11.63;;
43986;SDS011;29650;47.378;8.300;2024-03-02T05:33:57;103.15;;;12.63;;
43986;SDS011;29650;47.378;8.300;2024-03-02T05:36:24;26.05;;;10.10;;
43986;SDS011;29650;47.378;8.300;2024-03-02T05:38:51;108.93;;;14.45;;
43986;SDS011;29650;47.378;8.300;2024-03-02T05:41:18;46.88;;;10.40;;
43986;SDS011;29650;47.378;8.300;2024-03-02T05:43:45;75.82;;;10.68;;
43986;SDS011;29650;47.378;8.300;2024-03-02T05:46:12;210.18;;;17.30;;
43986;SDS011;29650;47.378;8.300;2024-03-02T05:48:41;52.10;;;9.13;;
43986;SDS011;29650;47.378;8.300;2024-03-02T05:51:07;89.77;;;11.80;;
43986;SDS011;29650;47.378;8.300;2024-03-02T05:53:34;33.63;;;9.05;;
43986;SDS011;29650;47.378;8.300;2024-03-02T05:56:03;42.40;;;10.60;;
43986;SDS011;29650;47.378;8.300;2024-03-02T05:58:31;150.60;;;16.88;;
43986;SDS011;29650;47.378;8.300;2024-03-02T06:01:11;39.15;;;9.88;;
43986;SDS011;29650;47.378;8.300;2024-03-02T06:03:38;273.35;;;22.88;;
43986;SDS011;29650;47.378;8.300;2024-03-02T06:06:06;41.97;;;12.30;;
43986;SDS011;29650;47.378;8.300;2024-03-02T06:08:33;21.83;;;9.87;;
43986;SDS011;29650;47.378;8.300;2024-03-02T06:11:00;17.45;;;9.90;;
43986;SDS011;29650;47.378;8.300;2024-03-02T06:13:27;20.63;;;8.05;;
43986;SDS011;29650;47.378;8.300;2024-03-02T06:15:54;21.92;;;10.40;;
43986;SDS011;29650;47.378;8.300;2024-03-02T06:18:21;24.60;;;9.93;;
43986;SDS011;29650;47.378;8.300;2024-03-02T06:20:48;15.45;;;8.48;;
43986;SDS011;29650;47.378;8.300;2024-03-02T06:23:16;12.00;;;6.90;;
43986;SDS011;29650;47.378;8.300;2024-03-02T06:25:43;11.88;;;6.57;;
43986;SDS011;29650;47.378;8.300;2024-03-02T06:28:10;9.52;;;6.10;;
43986;SDS011;29650;47.378;8.300;2024-03-02T06:30:40;15.23;;;6.97;;
43986;SDS011;29650;47.378;8.300;2024-03-02T06:33:07;19.00;;;8.35;;
43986;SDS011;29650;47.378;8.300;2024-03-02T06:35:34;16.67;;;8.60;;
43986;SDS011;29650;47.378;8.300;2024-03-02T06:38:01;21.20;;;8.70;;
43986;SDS011;29650;47.378;8.300;2024-03-02T06:40:29;14.90;;;8.43;;
43986;SDS011;29650;47.378;8.300;2024-03-02T06:42:56;42.13;;;9.27;;
43986;SDS011;29650;47.378;8.300;2024-03-02T06:45:23;179.35;;;13.45;;
43986;SDS011;29650;47.378;8.300;2024-03-02T06:47:50;193.60;;;13.68;;
43986;SDS011;29650;47.378;8.300;2024-03-02T06:50:17;147.63;;;13.35;;
43986;SDS011;29650;47.378;8.300;2024-03-02T06:52:44;56.63;;;12.23;;
43986;SDS011;29650;47.378;8.300;2024-03-02T06:55:11;171.73;;;14.23;;
43986;SDS011;29650;47.378;8.300;2024-03-02T06:57:39;167.10;;;13.50;;
43986;SDS011;29650;47.378;8.300;2024-03-02T07:00:06;249.68;;;18.27;;
43986;SDS011;29650;47.378;8.300;2024-03-02T07:02:34;57.92;;;10.07;;
43986;SDS011;29650;47.378;8.300;2024-03-02T07:05:02;126.00;;;13.40;;
43986;SDS011;29650;47.378;8.300;2024-03-02T07:07:29;208.73;;;14.73;;
43986;SDS011;29650;47.378;8.300;2024-03-02T07:09:56;36.83;;;10.82;;
43986;SDS011;29650;47.378;8.300;2024-03-02T07:12:23;58.88;;;11.55;;
43986;SDS011;29650;47.378;8.300;2024-03-02T07:14:52;29.05;;;9.07;;
43986;SDS011;29650;47.378;8.300;2024-03-02T07:17:36;14.52;;;8.43;;
43986;SDS011;29650;47.378;8.300;2024-03-02T07:20:03;122.53;;;11.40;;
43986;SDS011;29650;47.378;8.300;2024-03-02T07:22:31;128.63;;;12.10;;
43986;SDS011;29650;47.378;8.300;2024-03-02T07:24:59;67.38;;;10.00;;
43986;SDS011;29650;47.378;8.300;2024-03-02T07:27:26;96.70;;;10.13;;
43986;SDS011;29650;47.378;8.300;2024-03-02T07:29:54;51.47;;;8.82;;
43986;SDS011;29650;47.378;8.300;2024-03-02T07:32:21;89.75;;;9.98;;
43986;SDS011;29650;47.378;8.300;2024-03-02T07:34:48;30.98;;;8.00;;
43986;SDS011;29650;47.378;8.300;2024-03-02T07:37:16;17.83;;;6.82;;
43986;SDS011;29650;47.378;8.300;2024-03-02T07:39:43;13.18;;;6.75;;
43986;SDS011;29650;47.378;8.300;2024-03-02T07:42:11;12.32;;;7.10;;
43986;SDS011;29650;47.378;8.300;2024-03-02T07:44:38;12.27;;;6.57;;
43986;SDS011;29650;47.378;8.300;2024-03-02T07:47:06;30.48;;;7.47;;
43986;SDS011;29650;47.378;8.300;2024-03-02T07:49:33;38.45;;;9.30;;
43986;SDS011;29650;47.378;8.300;2024-03-02T07:52:00;87.50;;;10.77;;
43986;SDS011;29650;47.378;8.300;2024-03-02T07:54:27;20.08;;;7.25;;
43986;SDS011;29650;47.378;8.300;2024-03-02T07:56:54;30.70;;;8.52;;
43986;SDS011;29650;47.378;8.300;2024-03-02T07:59:21;18.08;;;8.93;;
43986;SDS011;29650;47.378;8.300;2024-03-02T08:01:48;30.35;;;9.65;;
43986;SDS011;29650;47.378;8.300;2024-03-02T08:04:17;17.23;;;8.95;;
43986;SDS011;29650;47.378;8.300;2024-03-02T08:06:45;22.37;;;9.50;;
43986;SDS011;29650;47.378;8.300;2024-03-02T08:09:12;21.15;;;9.93;;
43986;SDS011;29650;47.378;8.300;2024-03-02T08:11:39;22.60;;;9.18;;
43986;SDS011;29650;47.378;8.300;2024-03-02T08:14:06;23.05;;;10.20;;
43986;SDS011;29650;47.378;8.300;2024-03-02T08:16:33;18.80;;;9.95;;
43986;SDS011;29650;47.378;8.300;2024-03-02T08:19:00;19.42;;;10.98;;
43986;SDS011;29650;47.378;8.300;2024-03-02T08:21:28;54.83;;;11.93;;
43986;SDS011;29650;47.378;8.300;2024-03-02T08:23:57;70.65;;;11.38;;
43986;SDS011;29650;47.378;8.300;2024-03-02T08:26:24;106.85;;;14.25;;
43986;SDS011;29650;47.378;8.300;2024-03-02T08:28:54;108.65;;;14.70;;
43986;SDS011;29650;47.378;8.300;2024-03-02T08:31:21;40.90;;;10.27;;
43986;SDS011;29650;47.378;8.300;2024-03-02T08:33:47;76.15;;;11.52;;
43986;SDS011;29650;47.378;8.300;2024-03-02T08:36:14;164.68;;;16.95;;
43986;SDS011;29650;47.378;8.300;2024-03-02T08:38:43;70.45;;;10.93;;
43986;SDS011;29650;47.378;8.300;2024-03-02T08:41:10;74.87;;;10.73;;
43986;SDS011;29650;47.378;8.300;2024-03-02T08:43:38;36.53;;;10.67;;
43986;SDS011;29650;47.378;8.300;2024-03-02T08:46:07;37.50;;;10.50;;
43986;SDS011;29650;47.378;8.300;2024-03-02T08:48:34;25.17;;;9.50;;
43986;SDS011;29650;47.378;8.300;2024-03-02T08:51:01;54.22;;;10.77;;
43986;SDS011;29650;47.378;8.300;2024-03-02T08:53:31;47.53;;;10.98;;
43986;SDS011;29650;47.378;8.300;2024-03-02T08:55:59;51.78;;;10.50;;
43986;SDS011;29650;47.378;8.300;2024-03-02T08:58:26;28.47;;;9.20;;
43986;SDS011;29650;47.378;8.300;2024-03-02T09:00:53;17.20;;;9.32;;
43986;SDS011;29650;47.378;8.300;2024-03-02T09:03:20;33.78;;;10.15;;
43986;SDS011;29650;47.378;8.300;2024-03-02T09:05:47;31.52;;;10.68;;
43986;SDS011;29650;47.378;8.300;2024-03-02T09:08:14;30.75;;;11.32;;
43986;SDS011;29650;47.378;8.300;2024-03-02T09:10:41;20.75;;;9.75;;
43986;SDS011;29650;47.378;8.300;2024-03-02T09:13:10;15.25;;;9.70;;
43986;SDS011;29650;47.378;8.300;2024-03-02T09:15:37;14.80;;;9.20;;
43986;SDS011;29650;47.378;8.300;2024-03-02T09:18:04;18.13;;;10.32;;
43986;SDS011;29650;47.378;8.300;2024-03-02T09:20:32;17.33;;;10.63;;
43986;SDS011;29650;47.378;8.300;2024-03-02T09:22:59;18.25;;;9.98;;
43986;SDS011;29650;47.378;8.300;2024-03-02T09:25:25;18.13;;;9.90;;
43986;SDS011;29650;47.378;8.300;2024-03-02T09:27:52;17.25;;;9.95;;
43986;SDS011;29650;47.378;8.300;2024-03-02T09:30:21;17.30;;;10.32;;
43986;SDS011;29650;47.378;8.300;2024-03-02T09:32:47;16.83;;;9.80;;
43986;SDS011;29650;47.378;8.300;2024-03-02T09:35:14;16.55;;;9.63;;
43986;SDS011;29650;47.378;8.300;2024-03-02T09:37:41;34.67;;;11.07;;
43986;SDS011;29650;47.378;8.300;2024-03-02T09:40:09;18.35;;;10.63;;
43986;SDS011;29650;47.378;8.300;2024-03-02T09:42:37;16.48;;;9.68;;
43986;SDS011;29650;47.378;8.300;2024-03-02T09:45:05;26.73;;;10.32;;
43986;SDS011;29650;47.378;8.300;2024-03-02T09:47:34;24.73;;;10.77;;
43986;SDS011;29650;47.378;8.300;2024-03-02T09:50:01;19.88;;;10.88;;
43986;SDS011;29650;47.378;8.300;2024-03-02T09:52:29;20.30;;;10.43;;
43986;SDS011;29650;47.378;8.300;2024-03-02T09:54:57;17.60;;;10.27;;
43986;SDS011;29650;47.378;8.300;2024-03-02T09:57:24;19.50;;;10.82;;
43986;SDS011;29650;47.378;8.300;2024-03-02T09:59:51;19.33;;;11.23;;
43986;SDS011;29650;47.378;8.300;2024-03-02T10:02:18;18.15;;;10.27;;
43986;SDS011;29650;47.378;8.300;2024-03-02T10:04:48;19.00;;;10.55;;
43986;SDS011;29650;47.378;8.300;2024-03-02T10:07:16;18.80;;;10.70;;
43986;SDS011;29650;47.378;8.300;2024-03-02T10:09:44;16.98;;;8.90;;
43986;SDS011;29650;47.378;8.300;2024-03-02T10:12:12;17.47;;;10.07;;
43986;SDS011;29650;47.378;8.300;2024-03-02T10:14:40;14.82;;;9.38;;
43986;SDS011;29650;47.378;8.300;2024-03-02T10:17:08;17.20;;;10.43;;
43986;SDS011;29650;47.378;8.300;2024-03-02T10:19:36;14.40;;;9.32;;
43986;SDS011;29650;47.378;8.300;2024-03-02T10:22:06;15.38;;;10.10;;
43986;SDS011;29650;47.378;8.300;2024-03-02T10:24:37;15.23;;;9.73;;
43986;SDS011;29650;47.378;8.300;2024-03-02T10:27:09;13.45;;;8.88;;
43986;SDS011;29650;47.378;8.300;2024-03-02T10:29:37;15.73;;;9.65;;
43986;SDS011;29650;47.378;8.300;2024-03-02T10:32:06;15.15;;;9.35;;
43986;SDS011;29650;47.378;8.300;2024-03-02T10:34:36;14.77;;;9.73;;
43986;SDS011;29650;47.378;8.300;2024-03-02T10:37:03;16.58;;;10.32;;
43986;SDS011;29650;47.378;8.300;2024-03-02T10:39:32;15.43;;;10.90;;
43986;SDS011;29650;47.378;8.300;2024-03-02T10:42:01;17.67;;;9.38;;
43986;SDS011;29650;47.378;8.300;2024-03-02T10:59:21;12.23;;;8.57;;
43986;SDS011;29650;47.378;8.300;2024-03-02T11:01:53;10.10;;;7.80;;
43986;SDS011;29650;47.378;8.300;2024-03-02T11:04:23;11.57;;;7.78;;
43986;SDS011;29650;47.378;8.300;2024-03-02T11:06:52;9.50;;;7.32;;
43986;SDS011;29650;47.378;8.300;2024-03-02T11:09:26;9.82;;;7.40;;
43986;SDS011;29650;47.378;8.300;2024-03-02T11:11:58;11.23;;;7.75;;
43986;SDS011;29650;47.378;8.300;2024-03-02T11:14:29;11.10;;;8.20;;
43986;SDS011;29650;47.378;8.300;2024-03-02T11:16:58;10.18;;;7.50;;
43986;SDS011;29650;47.378;8.300;2024-03-02T11:19:26;11.07;;;7.50;;
43986;SDS011;29650;47.378;8.300;2024-03-02T11:21:54;11.02;;;8.20;;
43986;SDS011;29650;47.378;8.300;2024-03-02T11:24:28;11.63;;;8.73;;
43986;SDS011;29650;47.378;8.300;2024-03-02T11:27:00;11.82;;;9.30;;
43986;SDS011;29650;47.378;8.300;2024-03-02T11:29:43;10.13;;;7.75;;
43986;SDS011;29650;47.378;8.300;2024-03-02T11:32:14;8.88;;;7.35;;
43986;SDS011;29650;47.378;8.300;2024-03-02T11:34:43;10.52;;;7.25;;
43986;SDS011;29650;47.378;8.300;2024-03-02T11:37:12;9.10;;;7.17;;
43986;SDS011;29650;47.378;8.300;2024-03-02T11:39:40;8.73;;;7.07;;
43986;SDS011;29650;47.378;8.300;2024-03-02T11:42:10;7.85;;;6.15;;
43986;SDS011;29650;47.378;8.300;2024-03-02T11:44:39;9.80;;;6.95;;
43986;SDS011;29650;47.378;8.300;2024-03-02T11:47:08;8.65;;;6.85;;
43986;SDS011;29650;47.378;8.300;2024-03-02T11:49:39;9.55;;;6.47;;
43986;SDS011;29650;47.378;8.300;2024-03-02T11:52:07;8.13;;;6.10;;
43986;SDS011;29650;47.378;8.300;2024-03-02T11:54:36;7.82;;;6.20;;
43986;SDS011;29650;47.378;8.300;2024-03-02T11:57:05;8.67;;;6.20;;
43986;SDS011;29650;47.378;8.300;2024-03-02T11:59:35;7.88;;;6.43;;
43986;SDS011;29650;47.378;8.300;2024-03-02T12:02:02;8.13;;;5.82;;
43986;SDS011;29650;47.378;8.300;2024-03-02T12:04:29;8.25;;;5.97;;
43986;SDS011;29650;47.378;8.300;2024-03-02T12:06:57;8.23;;;6.07;;
43986;SDS011;29650;47.378;8.300;2024-03-02T12:09:28;7.28;;;5.57;;
43986;SDS011;29650;47.378;8.300;2024-03-02T12:12:02;7.78;;;5.47;;
43986;SDS011;29650;47.378;8.300;2024-03-02T12:14:30;5.68;;;5.03;;
43986;SDS011;29650;47.378;8.300;2024-03-02T12:16:58;5.45;;;4.90;;
43986;SDS011;29650;47.378;8.300;2024-03-02T12:19:26;7.03;;;5.00;;
43986;SDS011;29650;47.378;8.300;2024-03-02T12:21:54;5.15;;;3.97;;
43986;SDS011;29650;47.378;8.300;2024-03-02T12:24:21;5.80;;;4.00;;
43986;SDS011;29650;47.378;8.300;2024-03-02T12:26:49;4.90;;;3.80;;
43986;SDS011;29650;47.378;8.300;2024-03-02T12:29:16;6.43;;;4.35;;
43986;SDS011;29650;47.378;8.300;2024-03-02T12:31:47;6.57;;;4.18;;
43986;SDS011;29650;47.378;8.300;2024-03-02T12:34:17;5.15;;;3.55;;
43986;SDS011;29650;47.378;8.300;2024-03-02T12:36:46;4.90;;;3.83;;
43986;SDS011;29650;47.378;8.300;2024-03-02T12:39:15;5.33;;;4.50;;
43986;SDS011;29650;47.378;8.300;2024-03-02T12:41:42;5.03;;;4.20;;
43986;SDS011;29650;47.378;8.300;2024-03-02T12:44:09;4.00;;;2.67;;
43986;SDS011;29650;47.378;8.300;2024-03-02T12:46:36;5.83;;;4.83;;
43986;SDS011;29650;47.378;8.300;2024-03-02T12:49:07;6.20;;;5.00;;
43986;SDS011;29650;47.378;8.300;2024-03-02T12:51:40;8.93;;;4.95;;
43986;SDS011;29650;47.378;8.300;2024-03-02T12:54:08;5.65;;;4.53;;
43986;SDS011;29650;47.378;8.300;2024-03-02T12:56:35;4.33;;;3.30;;
43986;SDS011;29650;47.378;8.300;2024-03-02T12:59:03;5.00;;;3.65;;
43986;SDS011;29650;47.378;8.300;2024-03-02T13:01:31;3.28;;;2.53;;
43986;SDS011;29650;47.378;8.300;2024-03-02T13:03:58;3.25;;;2.30;;
43986;SDS011;29650;47.378;8.300;2024-03-02T13:06:25;2.83;;;2.20;;
43986;SDS011;29650;47.378;8.300;2024-03-02T13:08:55;2.70;;;2.10;;
43986;SDS011;29650;47.378;8.300;2024-03-02T13:11:22;3.93;;;2.40;;
43986;SDS011;29650;47.378;8.300;2024-03-02T13:13:50;2.90;;;2.00;;
43986;SDS011;29650;47.378;8.300;2024-03-02T13:16:17;3.30;;;2.35;;
43986;SDS011;29650;47.378;8.300;2024-03-02T13:18:45;3.40;;;2.20;;
43986;SDS011;29650;47.378;8.300;2024-03-02T13:21:12;2.70;;;2.00;;
43986;SDS011;29650;47.378;8.300;2024-03-02T13:23:39;3.22;;;2.30;;
43986;SDS011;29650;47.378;8.300;2024-03-02T13:26:08;2.88;;;2.33;;
43986;SDS011;29650;47.378;8.300;2024-03-02T13:28:37;2.78;;;2.20;;
43986;SDS011;29650;47.378;8.300;2024-03-02T13:31:04;2.58;;;1.85;;
43986;SDS011;29650;47.378;8.300;2024-03-02T13:33:32;3.30;;;2.20;;
43986;SDS011;29650;47.378;8.300;2024-03-02T13:35:58;2.83;;;2.20;;
43986;SDS011;29650;47.378;8.300;2024-03-02T13:38:26;3.92;;;2.70;;
43986;SDS011;29650;47.378;8.300;2024-03-02T13:40:53;3.63;;;2.78;;
43986;SDS011;29650;47.378;8.300;2024-03-02T13:43:22;3.83;;;2.70;;
43986;SDS011;29650;47.378;8.300;2024-03-02T13:45:49;3.33;;;2.60;;
43986;SDS011;29650;47.378;8.300;2024-03-02T13:48:18;2.75;;;2.40;;
43986;SDS011;29650;47.378;8.300;2024-03-02T13:50:45;3.00;;;2.70;;
43986;SDS011;29650;47.378;8.300;2024-03-02T13:53:12;3.47;;;2.60;;
43986;SDS011;29650;47.378;8.300;2024-03-02T13:55:39;4.30;;;2.47;;
43986;SDS011;29650;47.378;8.300;2024-03-02T13:58:07;4.63;;;2.65;;
43986;SDS011;29650;47.378;8.300;2024-03-02T14:00:35;2.92;;;2.55;;
43986;SDS011;29650;47.378;8.300;2024-03-02T14:03:03;3.60;;;2.53;;
43986;SDS011;29650;47.378;8.300;2024-03-02T14:05:32;4.03;;;2.70;;
43986;SDS011;29650;47.378;8.300;2024-03-02T14:07:59;3.97;;;3.20;;
43986;SDS011;29650;47.378;8.300;2024-03-02T14:10:26;3.97;;;3.30;;
43986;SDS011;29650;47.378;8.300;2024-03-02T14:12:54;4.45;;;3.08;;
43986;SDS011;29650;47.378;8.300;2024-03-02T14:15:21;3.75;;;2.95;;
43986;SDS011;29650;47.378;8.300;2024-03-02T14:17:49;5.13;;;3.60;;
43986;SDS011;29650;47.378;8.300;2024-03-02T14:20:16;4.35;;;2.95;;
43986;SDS011;29650;47.378;8.300;2024-03-02T14:22:47;3.67;;;3.13;;
43986;SDS011;29650;47.378;8.300;2024-03-02T14:25:14;4.03;;;3.15;;
43986;SDS011;29650;47.378;8.300;2024-03-02T14:27:41;4.13;;;2.88;;
43986;SDS011;29650;47.378;8.300;2024-03-02T14:30:08;4.37;;;3.10;;
43986;SDS011;29650;47.378;8.300;2024-03-02T14:32:36;3.97;;;3.00;;
43986;SDS011;29650;47.378;8.300;2024-03-02T14:35:05;4.10;;;2.97;;
43986;SDS011;29650;47.378;8.300;2024-03-02T14:37:34;4.82;;;2.67;;
43986;SDS011;29650;47.378;8.300;2024-03-02T14:40:02;4.82;;;3.30;;
43986;SDS011;29650;47.378;8.300;2024-03-02T14:42:31;3.67;;;2.50;;
43986;SDS011;29650;47.378;8.300;2024-03-02T14:44:58;4.47;;;2.80;;
43986;SDS011;29650;47.378;8.300;2024-03-02T14:47:25;3.83;;;2.90;;